Airfield :
LOGIN :

Register | Disclaimer

   EN    FR    IT 

 










Legend :    VFR   Marginal VFR   IFR   Intensive IFR   Very Intensive IFR
Visi :
Ceiling :
>= 8 km
>= 3000ft
5 to 8 km
1000 to 3000 ft
1500m to 5 km
500 to 1000 ft
800 to 1500m
200 to 500 ft
< 800m
< 200 ft
Symbols :   Thunderstorms  Fog  Heavy snow  Heavy precipitations  Wind > 20 kt
SIGMETs :     Misc.  Thunderstorms  Icing  Turbulence  Mountain Waves  Volcanic Ashes






- Airport Elevation : 42 ft
- IATA code : KGD


UMKK - Khrabrava - Kaliningrad

CURRENT METAR :
  • 301700Z 30004MPS 9999 BKN024CB 03/M02 Q1021 R24/290095 NOSIG RMK QFE764/1019

EXPIRED METARs :
  • 301630Z 31003MPS 9999 BKN023CB 03/M02 Q1020 R24/290095 NOSIG RMK QFE764/1019
  • 301600Z 30004MPS 9999 BKN022CB 03/M02 Q1020 R24/290095 NOSIG RMK QFE764/1019
  • 301430Z 30006MPS 9999 SCT027 05/M05 Q1020 R24/CLRD95 NOSIG RMK QFE764/1019

TAF TAF UMKK
Valid from the 30 at 15:00 until the 31 at 15:00 UTC


301357Z 3015/3115 32005G10MPS 9999 SCT011 BKN015CB
BECMG 3016/3017 02007G15MPS
TEMPO 3016/3106 0500 +SHSNRA BKN003 BKN011CB
BECMG 3021/3023 VRB01MPS
BECMG 3106/3108 SCT011 BKN020
BECMG 3111/3113 34003G08MPS



MET'MAP, your aeronautical weather chart ! - Copyright ORBIFLY December 2007 - Disclaimer

ORBIFLY MET'MAP TEAM :

Programming & Development : Alexandra Zaïnal
Concept & original design : Baudouin d'Aumeries
Assistance for programming : Marc-Olivier Méhu
Technical & hardware support : Manuel Goepfert

Contact : metmap@orbifly.com




SOURCES & CREDITS :

   NOAA